Thunder radar more information blitzortung!


Löydät sääaseman tiedot myös:

European Weather Network

Finland Weather Exchange

Weather Underground

AWEKAS



Weather Underground säähistoriasivu

Päivittäin yhteenveto Heinäkuu 20, 2017 Yksiköt:  Englantilaiset    Metriset   Molemmat
« Edellinen Päivä
Seuraava Päivä »
Päivittäin Viikoittain Kuukausittain Vuosittain Mukautettu
  Korkea: Matala: Keskiarvo:
Lämpötila: TemperatureC °F 8.6 °F 12.3 °F
Kastepiste: DewpointC °F 7.8 °F 9.5 °F
Kosteus: Humidity % 66 % 83 %
Tuulen nopeus: WindSpeedKMH mph 0.0 mph 1.3 mph
Tuulenpuuska: WindSpeedGustKMH mph - -
Tuuli:- - WNW
Ilmanpaine: PressurehPa in 1012.8 in -
Sade: 0.0 in    
Historical Graphs
 
 
Taulukkotiedot Heinäkuu 20, 2017
Aika Lämpötila Kastepiste Ilmanpaine Tuuli Tuulen nopeus Tuulenpuuska Kosteus Sademäärä (tunneittain)
TemperatureC °F DewpointC °F PressurehPa in Calm     Humidity % HourlyPrecipMM in
00:00 10.8 °F 9.3 °F 1012.8 in NW 1.6 mph 6.4 mph 90 % 0.0 in
00:05 10.8 °F 9.4 °F 1012.8 in Calm   6.4 mph 91 % 0.0 in
00:10 10.8 °F 9.4 °F 1012.8 in NW 1.6 mph 6.4 mph 91 % 0.0 in
00:15 10.7 °F 9.3 °F 1012.8 in Calm   6.4 mph 91 % 0.0 in
00:20 10.7 °F 9.3 °F 1012.8 in Calm   6.4 mph 91 % 0.0 in
00:25 10.7 °F 9.3 °F 1012.8 in Calm   6.4 mph 91 % 0.0 in
00:30 10.6 °F 9.2 °F 1012.8 in Calm   4.8 mph 91 % 0.0 in
00:35 10.6 °F 9.2 °F 1012.8 in Calm     91 % 0.0 in
00:40 10.5 °F 9.1 °F 1012.8 in Calm     91 % 0.0 in
00:45 10.4 °F 9.1 °F 1012.8 in Calm     91 % 0.0 in
00:50 10.4 °F 9.0 °F 1012.8 in Calm     91 % 0.0 in
00:55 10.3 °F 8.9 °F 1012.8 in Calm     91 % 0.0 in
01:00 10.2 °F 8.8 °F 1012.8 in Calm     91 % 0.0 in
01:05 10.2 °F 8.8 °F 1012.8 in Calm   1.6 mph 91 % 0.0 in
01:10 10.1 °F 8.7 °F 1012.8 in Calm   1.6 mph 91 % 0.0 in
01:15 10.1 °F 8.8 °F 1012.8 in Calm     92 % 0.0 in
01:20 10.0 °F 8.8 °F 1012.8 in Calm     92 % 0.0 in
01:25 9.9 °F 8.7 °F 1012.8 in Calm     92 % 0.0 in
01:30 9.9 °F 8.7 °F 1012.8 in Calm     92 % 0.0 in
01:35 9.8 °F 8.6 °F 1013.1 in Calm     92 % 0.0 in
01:40 9.8 °F 8.8 °F 1013.1 in Calm     93 % 0.0 in
01:45 9.8 °F 8.8 °F 1013.1 in Calm     93 % 0.0 in
01:50 9.8 °F 8.7 °F 1013.1 in Calm     93 % 0.0 in
01:55 9.8 °F 8.7 °F 1012.8 in Calm     93 % 0.0 in
02:00 9.7 °F 8.7 °F 1012.8 in Calm     93 % 0.0 in
02:05 9.7 °F 8.7 °F 1013.1 in Calm     93 % 0.0 in
02:10 9.7 °F 8.7 °F 1013.1 in Calm     93 % 0.0 in
02:15 9.7 °F 8.6 °F 1013.1 in Calm     93 % 0.0 in
02:20 9.6 °F 8.6 °F 1013.1 in Calm     93 % 0.0 in
02:25 9.6 °F 8.6 °F 1013.1 in Calm     93 % 0.0 in
02:30 9.6 °F 8.5 °F 1013.1 in Calm     93 % 0.0 in
02:35 9.5 °F 8.4 °F 1013.1 in Calm     93 % 0.0 in
02:40 9.4 °F 8.5 °F 1013.1 in Calm     94 % 0.0 in
02:45 9.4 °F 8.5 °F 1013.1 in Calm     94 % 0.0 in
02:50 9.4 °F 8.4 °F 1013.1 in Calm     94 % 0.0 in
02:55 9.4 °F 8.4 °F 1013.1 in Calm     94 % 0.0 in
03:00 9.3 °F 8.4 °F 1013.1 in Calm     94 % 0.0 in
03:05 9.3 °F 8.4 °F 1013.1 in Calm     94 % 0.0 in
03:10 9.3 °F 8.4 °F 1013.1 in Calm     94 % 0.0 in
03:15 9.3 °F 8.4 °F 1013.1 in Calm     94 % 0.0 in
03:20 9.2 °F 8.3 °F 1013.1 in Calm     94 % 0.0 in
03:25 9.2 °F 8.3 °F 1013.1 in Calm     94 % 0.0 in
03:30 9.1 °F 8.2 °F 1013.1 in Calm     94 % 0.0 in
03:35 9.1 °F 8.2 °F 1013.1 in Calm     94 % 0.0 in
03:40 8.9 °F 8.1 °F 1013.1 in Calm     94 % 0.0 in
03:45 8.9 °F 8.1 °F 1013.1 in Calm     95 % 0.0 in
03:50 8.8 °F 8.1 °F 1013.1 in Calm     95 % 0.0 in
03:55 8.8 °F 8.1 °F 1013.1 in Calm     95 % 0.0 in
04:00 8.8 °F 8.0 °F 1013.1 in Calm     95 % 0.0 in
04:05 8.7 °F 7.9 °F 1013.1 in Calm     95 % 0.0 in
04:10 8.7 °F 7.9 °F 1013.1 in Calm     95 % 0.0 in
04:15 8.6 °F 7.8 °F 1013.1 in Calm     95 % 0.0 in
04:20 8.6 °F 7.8 °F 1013.1 in Calm     95 % 0.0 in
04:25 8.6 °F 7.8 °F 1013.1 in Calm     95 % 0.0 in
04:30 8.7 °F 7.9 °F 1013.1 in Calm     95 % 0.0 in
04:35 8.7 °F 7.9 °F 1013.1 in Calm     95 % 0.0 in
04:40 8.7 °F 7.9 °F 1013.1 in Calm   4.8 mph 95 % 0.0 in
04:45 8.7 °F 8.1 °F 1013.1 in Calm   4.8 mph 96 % 0.0 in
04:50 8.8 °F 8.2 °F 1013.1 in Calm   4.8 mph 96 % 0.0 in
04:55 8.9 °F 8.3 °F 1013.1 in Calm     96 % 0.0 in
05:00 8.9 °F 8.3 °F 1013.1 in Calm   1.6 mph 96 % 0.0 in
05:05 9.0 °F 8.2 °F 1013.1 in Calm   1.6 mph 95 % 0.0 in
05:10 9.0 °F 8.2 °F 1013.1 in Calm     95 % 0.0 in
05:15 9.0 °F 8.2 °F 1013.1 in Calm     95 % 0.0 in
05:20 9.0 °F 8.2 °F 1013.1 in Calm     95 % 0.0 in
05:25 9.1 °F 8.3 °F 1013.1 in Calm     95 % 0.0 in
05:30 9.1 °F 8.3 °F 1013.1 in Calm     95 % 0.0 in
05:35 9.1 °F 8.3 °F 1013.1 in Calm     95 % 0.0 in
05:40 9.2 °F 8.4 °F 1013.1 in Calm     95 % 0.0 in
05:45 9.2 °F 8.4 °F 1013.1 in Calm     95 % 0.0 in
05:50 9.2 °F 8.4 °F 1013.1 in Calm     95 % 0.0 in
05:55 9.2 °F 8.4 °F 1013.1 in Calm     95 % 0.0 in
06:00 9.2 °F 8.4 °F 1013.1 in Calm     95 % 0.0 in
06:05 9.2 °F 8.4 °F 1013.1 in Calm     95 % 0.0 in
06:10 9.1 °F 8.3 °F 1013.1 in Calm     95 % 0.0 in
06:15 9.1 °F 8.3 °F 1012.8 in Calm     95 % 0.0 in
06:20 9.0 °F 8.2 °F 1012.8 in Calm     95 % 0.0 in
06:25 8.9 °F 8.2 °F 1013.1 in Calm     95 % 0.0 in
06:30 8.9 °F 8.1 °F 1013.1 in Calm     95 % 0.0 in
06:35 8.8 °F 8.1 °F 1012.8 in Calm     95 % 0.0 in
06:40 8.8 °F 8.0 °F 1013.1 in Calm     95 % 0.0 in
06:45 8.8 °F 8.2 °F 1013.1 in Calm     96 % 0.0 in
06:50 8.9 °F 8.3 °F 1013.1 in Calm     96 % 0.0 in
06:55 9.0 °F 8.4 °F 1012.8 in Calm     96 % 0.0 in
07:00 9.2 °F 8.6 °F 1012.8 in Calm     96 % 0.0 in
07:05 9.3 °F 8.7 °F 1012.8 in Calm     96 % 0.0 in
07:10 9.4 °F 8.8 °F 1013.1 in Calm     96 % 0.0 in
07:15 9.6 °F 8.9 °F 1012.8 in Calm     96 % 0.0 in
07:20 9.7 °F 9.1 °F 1012.8 in Calm     96 % 0.0 in
07:25 9.8 °F 9.2 °F 1012.8 in Calm     96 % 0.0 in
07:30 9.9 °F 9.1 °F 1013.1 in Calm     95 % 0.0 in
07:35 10.0 °F 9.2 °F 1012.8 in Calm     95 % 0.0 in
07:40 10.0 °F 9.2 °F 1012.8 in Calm     95 % 0.0 in
07:45 10.0 °F 9.1 °F 1013.1 in Calm     94 % 0.0 in
07:50 10.1 °F 9.1 °F 1012.8 in Calm     94 % 0.0 in
07:55 10.0 °F 9.1 °F 1013.1 in Calm     94 % 0.0 in
08:00 10.0 °F 9.1 °F 1013.1 in Calm     94 % 0.0 in
08:05 10.1 °F 9.3 °F 1013.1 in Calm     95 % 0.0 in
08:10 10.1 °F 9.3 °F 1013.1 in Calm     95 % 0.0 in
08:15 10.3 °F 9.5 °F 1013.1 in Calm     95 % 0.0 in
08:20 10.4 °F 9.6 °F 1013.1 in Calm     95 % 0.0 in
08:25 10.6 °F 9.8 °F 1013.1 in Calm     95 % 0.0 in
08:30 10.7 °F 9.9 °F 1013.1 in Calm     95 % 0.0 in
08:35 10.9 °F 10.1 °F 1013.1 in Calm     95 % 0.0 in
08:40 11.0 °F 10.1 °F 1013.1 in Calm     94 % 0.0 in
08:45 11.2 °F 10.2 °F 1013.1 in Calm     94 % 0.0 in
08:50 11.4 °F 10.4 °F 1013.1 in Calm   3.2 mph 94 % 0.0 in
08:55 11.6 °F 10.3 °F 1013.1 in Calm   3.2 mph 92 % 0.0 in
09:00 11.9 °F 10.6 °F 1013.1 in Calm   3.2 mph 92 % 0.0 in
09:05 12.3 °F 10.3 °F 1012.8 in Calm   4.8 mph 88 % 0.0 in
09:10 12.6 °F 10.3 °F 1012.8 in Calm   4.8 mph 86 % 0.0 in
09:15 12.8 °F 10.2 °F 1012.8 in Calm   6.4 mph 84 % 0.0 in
09:20 13.2 °F 10.5 °F 1012.8 in Calm   6.4 mph 84 % 0.0 in
09:25 13.5 °F 10.3 °F 1012.8 in NW 3.2 mph 12.9 mph 81 % 0.0 in
09:30 13.7 °F 10.4 °F 1012.8 in WNW 1.6 mph 12.9 mph 81 % 0.0 in
09:35 13.8 °F 10.3 °F 1012.8 in WNW 4.8 mph 12.9 mph 79 % 0.0 in
09:40 13.9 °F 10.3 °F 1012.8 in NW 3.2 mph 11.3 mph 79 % 0.0 in
09:45 14.0 °F 10.4 °F 1012.8 in NW 3.2 mph 12.9 mph 79 % 0.0 in
09:50 14.2 °F 10.2 °F 1012.8 in NW 1.6 mph 12.9 mph 77 % 0.0 in
09:55 14.2 °F 10.6 °F 1012.8 in NNW 3.2 mph 14.5 mph 79 % 0.0 in
10:00 14.2 °F 10.4 °F 1012.8 in NW 1.6 mph 14.5 mph 78 % 0.0 in
10:05 14.2 °F 10.4 °F 1013.1 in NW 3.2 mph 14.5 mph 78 % 0.0 in
10:10 14.1 °F 10.7 °F 1013.1 in NNW 1.6 mph 8.0 mph 80 % 0.0 in
10:15 14.0 °F 10.6 °F 1013.1 in WNW 1.6 mph 8.0 mph 80 % 0.0 in
10:20 13.9 °F 10.7 °F 1012.8 in WNW 1.6 mph 8.0 mph 81 % 0.0 in
10:25 13.9 °F 10.7 °F 1013.1 in Calm   6.4 mph 81 % 0.0 in
10:30 14.1 °F 10.4 °F 1013.1 in NNW 1.6 mph 9.7 mph 79 % 0.0 in
10:35 14.2 °F 10.4 °F 1013.1 in NNW 1.6 mph 9.7 mph 78 % 0.0 in
10:40 14.2 °F 10.8 °F 1012.8 in NNW 1.6 mph 6.4 mph 80 % 0.0 in
10:45 14.3 °F 10.9 °F 1012.8 in NW 1.6 mph 6.4 mph 80 % 0.0 in
10:50 14.7 °F 11.1 °F 1012.8 in NW 1.6 mph 6.4 mph 79 % 0.0 in
10:55 15.0 °F 10.8 °F 1012.8 in NW 1.6 mph 6.4 mph 76 % 0.0 in
11:00 15.2 °F 11.0 °F 1012.8 in NNW 1.6 mph 6.4 mph 76 % 0.0 in
11:05 15.4 °F 10.8 °F 1012.8 in NNW 1.6 mph 8.0 mph 74 % 0.0 in
11:10 15.3 °F 10.5 °F 1012.8 in NW 4.8 mph 12.9 mph 73 % 0.0 in
11:15 15.2 °F 10.3 °F 1012.8 in NW 4.8 mph 12.9 mph 73 % 0.0 in
11:20 15.2 °F 10.6 °F 1012.8 in NW 4.8 mph 12.9 mph 74 % 0.0 in
11:25 14.9 °F 10.3 °F 1013.1 in NW 4.8 mph 12.9 mph 74 % 0.0 in
11:30 14.8 °F 10.4 °F 1012.8 in NW 3.2 mph 11.3 mph 75 % 0.0 in
11:35 14.8 °F 10.6 °F 1012.8 in NNW 3.2 mph 11.3 mph 76 % 0.0 in
11:40 14.7 °F 10.6 °F 1012.8 in North 3.2 mph 9.7 mph 76 % 0.0 in
11:45 14.8 °F 10.1 °F 1012.8 in NNW 3.2 mph 9.7 mph 73 % 0.0 in
11:50 14.9 °F 9.9 °F 1012.8 in NNW 3.2 mph 12.9 mph 72 % 0.0 in
11:55 14.9 °F 9.7 °F 1012.8 in NNW 3.2 mph 12.9 mph 71 % 0.0 in
12:00 15.0 °F 10.0 °F 1012.8 in NNW 1.6 mph 8.0 mph 72 % 0.0 in
12:05 14.9 °F 9.9 °F 1013.1 in NNW 3.2 mph 9.7 mph 72 % 0.0 in
12:10 14.8 °F 9.8 °F 1012.8 in North 3.2 mph 16.1 mph 72 % 0.0 in
12:15 14.7 °F 9.7 °F 1012.8 in North 1.6 mph 16.1 mph 72 % 0.0 in
12:20 14.6 °F 10.0 °F 1013.1 in NNW 1.6 mph 14.5 mph 74 % 0.0 in
12:25 14.5 °F 10.3 °F 1012.8 in NW 3.2 mph 11.3 mph 76 % 0.0 in
12:30 14.4 °F 10.1 °F 1012.8 in North 1.6 mph 12.9 mph 75 % 0.0 in
12:35 14.5 °F 10.1 °F 1012.8 in Calm   12.9 mph 75 % 0.0 in
12:40 14.6 °F 10.0 °F 1013.1 in NNE 3.2 mph 9.7 mph 74 % 0.0 in
12:45 14.4 °F 10.3 °F 1013.1 in NE 1.6 mph 9.7 mph 76 % 0.0 in
12:50 14.3 °F 10.6 °F 1012.8 in Calm   9.7 mph 78 % 0.0 in
12:55 14.4 °F 10.4 °F 1012.8 in SW 1.6 mph 8.0 mph 77 % 0.0 in
13:00 14.6 °F 10.4 °F 1012.8 in WNW 4.8 mph 12.9 mph 76 % 0.0 in
13:05 14.7 °F 10.3 °F 1012.8 in NW 3.2 mph 12.9 mph 75 % 0.0 in
13:10 14.7 °F 10.5 °F 1013.1 in NNW 3.2 mph 12.9 mph 76 % 0.0 in
13:15 14.8 °F 10.4 °F 1012.8 in NNW 1.6 mph 11.3 mph 75 % 0.0 in
13:20 14.8 °F 10.2 °F 1012.8 in North 4.8 mph 19.3 mph 74 % 0.0 in
13:25 14.7 °F 10.7 °F 1013.1 in NNW 4.8 mph 19.3 mph 77 % 0.0 in
13:30 14.5 °F 10.5 °F 1013.1 in NNW 3.2 mph 12.9 mph 77 % 0.0 in
13:35 14.4 °F 10.6 °F 1013.1 in NNW 3.2 mph 12.9 mph 78 % 0.0 in
13:40 14.3 °F 10.5 °F 1013.1 in NW 3.2 mph 11.3 mph 78 % 0.0 in
13:45 14.3 °F 10.7 °F 1013.1 in NNW 4.8 mph 12.9 mph 79 % 0.0 in
13:50 14.2 °F 10.4 °F 1013.1 in NW 4.8 mph 12.9 mph 78 % 0.0 in
13:55 14.1 °F 10.3 °F 1013.1 in NW 6.4 mph 16.1 mph 78 % 0.0 in
14:00 14.1 °F 10.4 °F 1013.1 in NW 4.8 mph 16.1 mph 79 % 0.0 in
14:05 14.1 °F 10.4 °F 1013.1 in NW 1.6 mph 12.9 mph 79 % 0.0 in
14:10 14.2 °F 10.4 °F 1013.1 in NW 3.2 mph 11.3 mph 78 % 0.0 in
14:15 14.3 °F 10.5 °F 1013.1 in NW 3.2 mph 11.3 mph 78 % 0.0 in
14:20 14.3 °F 10.7 °F 1013.1 in NW 1.6 mph 11.3 mph 79 % 0.0 in
14:25 14.3 °F 10.7 °F 1013.1 in NW 1.6 mph 9.7 mph 79 % 0.0 in
14:30 14.1 °F 10.5 °F 1013.1 in Calm   6.4 mph 79 % 0.0 in
14:35 13.9 °F 10.7 °F 1013.1 in NNW 1.6 mph 4.8 mph 81 % 0.0 in
14:40 13.7 °F 10.4 °F 1013.1 in NW 1.6 mph 6.4 mph 81 % 0.0 in
14:45 13.6 °F 10.3 °F 1013.1 in NW 3.2 mph 9.7 mph 81 % 0.0 in
14:50 13.5 °F 10.5 °F 1013.1 in NW 1.6 mph 9.7 mph 82 % 0.0 in
14:55 13.6 °F 10.7 °F 1013.1 in NW 3.2 mph 12.9 mph 83 % 0.0 in
15:00 13.6 °F 10.3 °F 1013.1 in NNW 4.8 mph 12.9 mph 81 % 0.0 in
15:05 13.4 °F 10.2 °F 1013.4 in NNW 3.2 mph 12.9 mph 81 % 0.0 in
15:10 13.2 °F 10.2 °F 1013.4 in NW 3.2 mph 11.3 mph 82 % 0.0 in
15:15 12.9 °F 10.1 °F 1013.4 in NW 1.6 mph 9.7 mph 83 % 0.0 in
15:20 12.9 °F 10.2 °F 1013.1 in NW 3.2 mph 9.7 mph 84 % 0.0 in
15:25 13.0 °F 10.3 °F 1013.4 in NW 1.6 mph 9.7 mph 84 % 0.0 in
15:30 13.1 °F 10.1 °F 1013.4 in Calm   8.0 mph 82 % 0.0 in
15:35 13.1 °F 10.1 °F 1013.4 in Calm   6.4 mph 82 % 0.0 in
15:40 13.0 °F 10.0 °F 1013.4 in Calm   6.4 mph 82 % 0.0 in
15:45 13.0 °F 10.2 °F 1013.4 in Calm   4.8 mph 83 % 0.0 in
15:50 13.1 °F 10.1 °F 1013.4 in NNW 1.6 mph 8.0 mph 82 % 0.0 in
15:55 13.2 °F 10.4 °F 1013.4 in NW 1.6 mph 8.0 mph 83 % 0.0 in
16:00 13.4 °F 10.4 °F 1013.1 in NNW 1.6 mph 9.7 mph 82 % 0.0 in
16:05 13.7 °F 10.7 °F 1013.1 in NNW 1.6 mph 9.7 mph 82 % 0.0 in
16:10 14.0 °F 10.2 °F 1013.1 in North 1.6 mph 9.7 mph 78 % 0.0 in
16:15 14.2 °F 10.2 °F 1013.1 in NNE 1.6 mph 6.4 mph 77 % 0.0 in
16:20 14.3 °F 10.5 °F 1013.1 in Calm   6.4 mph 78 % 0.0 in
16:25 14.4 °F 10.3 °F 1013.1 in WNW 1.6 mph 8.0 mph 76 % 0.0 in
16:30 14.5 °F 10.7 °F 1013.1 in WNW 1.6 mph 8.0 mph 78 % 0.0 in
16:35 14.6 °F 10.6 °F 1013.1 in Calm   8.0 mph 77 % 0.0 in
16:40 14.7 °F 10.3 °F 1013.1 in North 1.6 mph 9.7 mph 75 % 0.0 in
16:45 14.9 °F 10.6 °F 1013.1 in NNW 1.6 mph 9.7 mph 75 % 0.0 in
16:50 15.1 °F 10.3 °F 1013.1 in NW 3.2 mph 9.7 mph 73 % 0.0 in
16:55 15.2 °F 10.2 °F 1012.8 in NNW 3.2 mph 16.1 mph 72 % 0.0 in
17:00 15.2 °F 10.6 °F 1013.1 in NW 1.6 mph 16.1 mph 74 % 0.0 in
17:05 15.3 °F 10.1 °F 1013.1 in NW 4.8 mph 14.5 mph 71 % 0.0 in
17:10 15.3 °F 10.1 °F 1013.1 in NW 8.0 mph 16.1 mph 71 % 0.0 in
17:15 15.1 °F 10.3 °F 1013.1 in NW 4.8 mph 16.1 mph 73 % 0.0 in
17:20 14.8 °F 10.0 °F 1013.1 in NW 4.8 mph 16.1 mph 73 % 0.0 in
17:25 14.6 °F 10.0 °F 1013.1 in WNW 8.0 mph 17.7 mph 74 % 0.0 in
17:30 14.6 °F 10.2 °F 1013.1 in NW 4.8 mph 17.7 mph 75 % 0.0 in
17:35 14.6 °F 10.2 °F 1013.1 in NNW 1.6 mph 12.9 mph 75 % 0.0 in
17:40 14.6 °F 10.2 °F 1013.1 in NNW 3.2 mph 9.7 mph 75 % 0.0 in
17:45 14.8 °F 9.8 °F 1013.1 in NW 6.4 mph 17.7 mph 72 % 0.0 in
17:50 14.8 °F 9.8 °F 1013.1 in NW 4.8 mph 17.7 mph 72 % 0.0 in
17:55 14.8 °F 9.8 °F 1013.1 in NW 4.8 mph 19.3 mph 72 % 0.0 in
18:00 14.9 °F 9.7 °F 1013.1 in NW 3.2 mph 19.3 mph 71 % 0.0 in
18:05 14.9 °F 10.2 °F 1013.1 in Calm   19.3 mph 73 % 0.0 in
18:10 15.1 °F 10.1 °F 1013.1 in NNW 1.6 mph 8.0 mph 72 % 0.0 in
18:15 15.4 °F 10.2 °F 1013.1 in NNW 1.6 mph 8.0 mph 71 % 0.0 in
18:20 15.6 °F 9.7 °F 1013.1 in NNW 3.2 mph 9.7 mph 68 % 0.0 in
18:25 15.5 °F 9.8 °F 1013.1 in NW 6.4 mph 12.9 mph 69 % 0.0 in
18:30 15.3 °F 9.7 °F 1013.1 in NW 4.8 mph 12.9 mph 69 % 0.0 in
18:35 15.3 °F 10.1 °F 1013.1 in WNW 3.2 mph 9.7 mph 71 % 0.0 in
18:40 15.4 °F 9.8 °F 1013.1 in WNW 4.8 mph 14.5 mph 69 % 0.0 in
18:45 15.4 °F 10.2 °F 1013.1 in Calm   14.5 mph 71 % 0.0 in
18:50 15.3 °F 9.8 °F 1013.1 in NW 1.6 mph 14.5 mph 70 % 0.0 in
18:55 15.3 °F 9.6 °F 1013.1 in NW 1.6 mph 6.4 mph 69 % 0.0 in
19:00 15.3 °F 10.1 °F 1013.1 in Calm   4.8 mph 71 % 0.0 in
19:05 15.5 °F 10.1 °F 1013.1 in Calm   3.2 mph 70 % 0.0 in
19:10 15.7 °F 9.6 °F 1013.1 in NW 3.2 mph 9.7 mph 67 % 0.0 in
19:15 15.8 °F 9.9 °F 1013.1 in NW 1.6 mph 9.7 mph 68 % 0.0 in
19:20 15.8 °F 9.9 °F 1013.1 in North 3.2 mph 8.0 mph 68 % 0.0 in
19:25 15.9 °F 9.8 °F 1013.1 in NNW 3.2 mph 14.5 mph 67 % 0.0 in
19:30 15.9 °F 9.6 °F 1013.1 in NW 6.4 mph 17.7 mph 66 % 0.0 in
19:35 15.8 °F 10.1 °F 1013.1 in NW 3.2 mph 17.7 mph 69 % 0.0 in
19:40 15.7 °F 10.1 °F 1013.1 in North 1.6 mph 8.0 mph 69 % 0.0 in
19:45 15.8 °F 10.2 °F 1013.1 in NNW 3.2 mph 8.0 mph 69 % 0.0 in
19:50 15.9 °F 10.5 °F 1013.1 in NNW 1.6 mph 8.0 mph 70 % 0.0 in
19:55 15.9 °F 10.3 °F 1013.1 in North 1.6 mph 6.4 mph 69 % 0.0 in
20:00 15.9 °F 10.4 °F 1013.1 in North 1.6 mph 8.0 mph 70 % 0.0 in
20:05 15.9 °F 10.0 °F 1013.1 in North 1.6 mph 9.7 mph 68 % 0.0 in
20:10 15.7 °F 10.0 °F 1013.1 in North 1.6 mph 9.7 mph 69 % 0.0 in
20:15 15.4 °F 10.0 °F 1013.1 in North 1.6 mph 6.4 mph 70 % 0.0 in
20:20 15.2 °F 9.5 °F 1013.1 in North 1.6 mph 8.0 mph 69 % 0.0 in
20:25 14.8 °F 9.4 °F 1013.1 in NNW 1.6 mph 8.0 mph 70 % 0.0 in
20:30 14.6 °F 9.4 °F 1013.1 in North 1.6 mph 6.4 mph 71 % 0.0 in
20:35 14.4 °F 9.4 °F 1013.1 in NNW 1.6 mph 8.0 mph 72 % 0.0 in
20:40 14.3 °F 9.6 °F 1013.1 in NW 1.6 mph 11.3 mph 73 % 0.0 in
20:45 14.2 °F 9.7 °F 1013.1 in Calm   11.3 mph 74 % 0.0 in
20:50 14.1 °F 9.7 °F 1013.1 in Calm   3.2 mph 75 % 0.0 in
20:55 13.9 °F 9.6 °F 1013.1 in Calm   3.2 mph 75 % 0.0 in
21:00 13.7 °F 9.6 °F 1013.1 in Calm     76 % 0.0 in
21:05 13.7 °F 9.7 °F 1013.1 in Calm     77 % 0.0 in
21:10 13.5 °F 9.6 °F 1013.1 in NNE 1.6 mph 8.0 mph 77 % 0.0 in
21:15 13.4 °F 9.5 °F 1013.4 in Calm   8.0 mph 77 % 0.0 in
21:20 13.4 °F 9.4 °F 1013.4 in Calm   3.2 mph 77 % 0.0 in
21:25 13.3 °F 9.5 °F 1013.4 in Calm   3.2 mph 78 % 0.0 in
21:30 13.2 °F 9.7 °F 1013.4 in Calm   3.2 mph 79 % 0.0 in
21:35 13.2 °F 9.6 °F 1013.4 in Calm   3.2 mph 79 % 0.0 in
21:40 13.1 °F 9.7 °F 1013.4 in Calm   3.2 mph 80 % 0.0 in
21:45 13.0 °F 9.6 °F 1013.4 in Calm   4.8 mph 80 % 0.0 in
21:50 12.9 °F 9.5 °F 1013.4 in Calm   4.8 mph 80 % 0.0 in
21:55 12.8 °F 9.4 °F 1013.8 in Calm   6.4 mph 80 % 0.0 in
22:00 12.6 °F 9.4 °F 1013.8 in Calm   6.4 mph 81 % 0.0 in
22:05 12.4 °F 9.3 °F 1013.8 in Calm   1.6 mph 81 % 0.0 in
22:10 12.3 °F 9.3 °F 1013.8 in Calm   1.6 mph 82 % 0.0 in
22:15 12.1 °F 9.3 °F 1013.8 in Calm   1.6 mph 83 % 0.0 in
22:20 11.9 °F 9.2 °F 1013.8 in Calm   1.6 mph 83 % 0.0 in
22:25 11.8 °F 9.0 °F 1013.8 in Calm   3.2 mph 83 % 0.0 in
22:30 11.6 °F 9.0 °F 1013.8 in Calm   3.2 mph 84 % 0.0 in
22:35 11.5 °F 8.9 °F 1013.8 in Calm   3.2 mph 84 % 0.0 in
22:40 11.4 °F 8.9 °F 1014.1 in Calm     85 % 0.0 in
22:45 11.2 °F 8.8 °F 1014.1 in Calm     85 % 0.0 in
22:50 11.1 °F 8.7 °F 1014.1 in Calm     85 % 0.0 in
22:55 11.0 °F 8.7 °F 1014.1 in Calm   1.6 mph 86 % 0.0 in
23:00 10.8 °F 8.6 °F 1014.1 in Calm   3.2 mph 86 % 0.0 in
23:05 10.7 °F 8.7 °F 1014.1 in Calm   3.2 mph 87 % 0.0 in
23:10 10.6 °F 8.6 °F 1014.4 in Calm   1.6 mph 87 % 0.0 in
23:20 10.3 °F 8.3 °F 1014.4 in Calm   1.6 mph 87 % 0.0 in
23:25 10.2 °F 8.3 °F 1014.4 in Calm   1.6 mph 88 % 0.0 in
23:30 10.1 °F 8.2 °F 1014.4 in Calm     88 % 0.0 in
23:35 10.0 °F 8.3 °F 1014.4 in Calm     89 % 0.0 in
23:40 9.9 °F 8.2 °F 1014.4 in Calm   3.2 mph 89 % 0.0 in
23:45 9.8 °F 8.1 °F 1014.4 in Calm   3.2 mph 89 % 0.0 in
23:50 9.7 °F 8.0 °F 1014.4 in NW 1.6 mph 6.4 mph 89 % 0.0 in
23:55 9.6 °F 8.1 °F 1014.4 in NW 1.6 mph 6.4 mph 90 % 0.0 in
Esan sääasema
Terveisin Weather Underground - 3.75 mb

Alkuperäinen skripti  Jim McMurry - jmcmurry@mwt.net Sovitettu myös templatelle  Wim van der Kuil - Leuven-Template.eu

Laitteet joita käytämme:

Sääasema
Davis VP2

Sääasemaohjelma
Cumulus

Sääaseman tietokone
Asus EeePC

Palveluntarjoaja
Suncomet

Davis VP2

Cumulus

Asus EeePC

Suncomet